sensor_id;sensor_type;location;lat;lon;timestamp;temperature;humidity
52495;DHT22;38405;53.212;5.660;2022-07-11T00:02:03;16.00;99.90
52495;DHT22;38405;53.212;5.660;2022-07-11T00:04:30;15.90;99.90
52495;DHT22;38405;53.212;5.660;2022-07-11T00:06:56;15.90;99.90
52495;DHT22;38405;53.212;5.660;2022-07-11T00:09:22;15.90;99.90
52495;DHT22;38405;53.212;5.660;2022-07-11T00:11:48;15.80;99.90
52495;DHT22;38405;53.212;5.660;2022-07-11T00:14:14;15.80;99.90
52495;DHT22;38405;53.212;5.660;2022-07-11T00:16:40;15.80;99.90
52495;DHT22;38405;53.212;5.660;2022-07-11T00:19:05;15.80;99.90
52495;DHT22;38405;53.212;5.660;2022-07-11T00:21:34;15.70;99.90
52495;DHT22;38405;53.212;5.660;2022-07-11T00:24:05;15.80;99.90
52495;DHT22;38405;53.212;5.660;2022-07-11T00:26:33;15.80;99.90
52495;DHT22;38405;53.212;5.660;2022-07-11T00:28:59;15.80;99.90
52495;DHT22;38405;53.212;5.660;2022-07-11T00:31:24;15.70;99.90
52495;DHT22;38405;53.212;5.660;2022-07-11T00:33:50;15.70;99.90
52495;DHT22;38405;53.212;5.660;2022-07-11T00:36:16;15.80;99.90
52495;DHT22;38405;53.212;5.660;2022-07-11T00:38:41;15.70;99.90
52495;DHT22;38405;53.212;5.660;2022-07-11T00:41:07;15.70;99.90
52495;DHT22;38405;53.212;5.660;2022-07-11T00:43:35;15.70;99.90
52495;DHT22;38405;53.212;5.660;2022-07-11T00:46:02;15.70;99.90
52495;DHT22;38405;53.212;5.660;2022-07-11T00:48:28;15.70;99.90
52495;DHT22;38405;53.212;5.660;2022-07-11T00:50:54;15.70;99.90
52495;DHT22;38405;53.212;5.660;2022-07-11T00:53:20;15.70;99.90
52495;DHT22;38405;53.212;5.660;2022-07-11T00:55:47;15.70;99.90
52495;DHT22;38405;53.212;5.660;2022-07-11T00:58:14;15.70;99.90
52495;DHT22;38405;53.212;5.660;2022-07-11T01:00:40;15.70;99.90
52495;DHT22;38405;53.212;5.660;2022-07-11T01:03:06;15.70;99.90
52495;DHT22;38405;53.212;5.660;2022-07-11T01:05:32;15.60;99.90
52495;DHT22;38405;53.212;5.660;2022-07-11T01:07:58;15.60;99.90
52495;DHT22;38405;53.212;5.660;2022-07-11T01:10:24;15.60;99.90
52495;DHT22;38405;53.212;5.660;2022-07-11T01:12:49;15.70;99.90
52495;DHT22;38405;53.212;5.660;2022-07-11T01:15:16;15.60;99.90
52495;DHT22;38405;53.212;5.660;2022-07-11T01:17:42;15.60;99.90
52495;DHT22;38405;53.212;5.660;2022-07-11T01:20:09;15.50;99.90
52495;DHT22;38405;53.212;5.660;2022-07-11T01:22:47;15.50;99.90
52495;DHT22;38405;53.212;5.660;2022-07-11T01:25:17;15.50;99.90
52495;DHT22;38405;53.212;5.660;2022-07-11T01:27:59;15.50;99.90
52495;DHT22;38405;53.212;5.660;2022-07-11T01:30:26;15.40;99.90
52495;DHT22;38405;53.212;5.660;2022-07-11T01:32:53;15.50;99.90
52495;DHT22;38405;53.212;5.660;2022-07-11T01:35:19;15.40;99.90
52495;DHT22;38405;53.212;5.660;2022-07-11T01:37:45;15.40;99.90
52495;DHT22;38405;53.212;5.660;2022-07-11T01:40:12;15.50;99.90
52495;DHT22;38405;53.212;5.660;2022-07-11T01:42:37;15.40;99.90
52495;DHT22;38405;53.212;5.660;2022-07-11T01:45:03;15.40;99.90
52495;DHT22;38405;53.212;5.660;2022-07-11T01:47:29;15.40;99.90
52495;DHT22;38405;53.212;5.660;2022-07-11T01:49:55;15.40;99.90
52495;DHT22;38405;53.212;5.660;2022-07-11T01:52:21;15.30;99.90
52495;DHT22;38405;53.212;5.660;2022-07-11T01:54:47;15.40;99.90
52495;DHT22;38405;53.212;5.660;2022-07-11T01:57:13;15.40;99.90
52495;DHT22;38405;53.212;5.660;2022-07-11T01:59:39;15.40;99.90
52495;DHT22;38405;53.212;5.660;2022-07-11T02:02:05;15.40;99.90
52495;DHT22;38405;53.212;5.660;2022-07-11T02:04:31;15.40;99.90
52495;DHT22;38405;53.212;5.660;2022-07-11T02:06:56;15.40;99.90
52495;DHT22;38405;53.212;5.660;2022-07-11T02:09:22;15.40;99.90
52495;DHT22;38405;53.212;5.660;2022-07-11T02:11:47;15.40;99.90
52495;DHT22;38405;53.212;5.660;2022-07-11T02:14:13;15.30;99.90
52495;DHT22;38405;53.212;5.660;2022-07-11T02:16:39;15.30;99.90
52495;DHT22;38405;53.212;5.660;2022-07-11T02:19:05;15.30;99.90
52495;DHT22;38405;53.212;5.660;2022-07-11T02:21:32;15.30;99.90
52495;DHT22;38405;53.212;5.660;2022-07-11T02:23:58;15.30;99.90
52495;DHT22;38405;53.212;5.660;2022-07-11T02:26:23;15.30;99.90
52495;DHT22;38405;53.212;5.660;2022-07-11T02:28:49;15.30;99.90
52495;DHT22;38405;53.212;5.660;2022-07-11T02:31:15;15.30;99.90
52495;DHT22;38405;53.212;5.660;2022-07-11T02:33:40;15.30;99.90
52495;DHT22;38405;53.212;5.660;2022-07-11T02:36:07;15.30;99.90
52495;DHT22;38405;53.212;5.660;2022-07-11T02:38:34;15.30;99.90
52495;DHT22;38405;53.212;5.660;2022-07-11T02:41:00;15.30;99.90
52495;DHT22;38405;53.212;5.660;2022-07-11T02:43:26;15.30;99.90
52495;DHT22;38405;53.212;5.660;2022-07-11T02:45:52;15.30;99.90
52495;DHT22;38405;53.212;5.660;2022-07-11T02:48:17;15.30;99.90
52495;DHT22;38405;53.212;5.660;2022-07-11T02:50:43;15.20;99.90
52495;DHT22;38405;53.212;5.660;2022-07-11T02:53:09;15.10;99.90
52495;DHT22;38405;53.212;5.660;2022-07-11T02:55:35;15.20;99.90
52495;DHT22;38405;53.212;5.660;2022-07-11T02:58:00;15.20;99.90
52495;DHT22;38405;53.212;5.660;2022-07-11T03:00:26;15.20;99.90
52495;DHT22;38405;53.212;5.660;2022-07-11T03:02:52;15.10;99.90
52495;DHT22;38405;53.212;5.660;2022-07-11T03:05:18;15.20;99.90
52495;DHT22;38405;53.212;5.660;2022-07-11T03:07:43;15.20;99.90
52495;DHT22;38405;53.212;5.660;2022-07-11T03:10:10;15.10;99.90
52495;DHT22;38405;53.212;5.660;2022-07-11T03:12:35;15.20;99.90
52495;DHT22;38405;53.212;5.660;2022-07-11T03:15:01;15.20;99.90
52495;DHT22;38405;53.212;5.660;2022-07-11T03:17:27;15.20;99.90
52495;DHT22;38405;53.212;5.660;2022-07-11T03:19:53;15.20;99.90
52495;DHT22;38405;53.212;5.660;2022-07-11T03:22:18;15.20;99.90
52495;DHT22;38405;53.212;5.660;2022-07-11T03:24:44;15.30;99.90
52495;DHT22;38405;53.212;5.660;2022-07-11T03:27:10;15.20;99.90
52495;DHT22;38405;53.212;5.660;2022-07-11T03:29:35;15.40;99.90
52495;DHT22;38405;53.212;5.660;2022-07-11T03:32:01;15.20;99.90
52495;DHT22;38405;53.212;5.660;2022-07-11T03:34:27;15.20;99.90
52495;DHT22;38405;53.212;5.660;2022-07-11T03:36:52;15.20;99.90
52495;DHT22;38405;53.212;5.660;2022-07-11T03:39:19;15.30;99.90
52495;DHT22;38405;53.212;5.660;2022-07-11T03:41:46;15.20;99.90
52495;DHT22;38405;53.212;5.660;2022-07-11T03:44:12;15.30;99.90
52495;DHT22;38405;53.212;5.660;2022-07-11T03:46:38;15.30;99.90
52495;DHT22;38405;53.212;5.660;2022-07-11T03:49:03;15.30;99.90
52495;DHT22;38405;53.212;5.660;2022-07-11T03:51:29;15.30;99.90
52495;DHT22;38405;53.212;5.660;2022-07-11T03:53:55;15.30;99.90
52495;DHT22;38405;53.212;5.660;2022-07-11T03:56:21;15.30;99.90
52495;DHT22;38405;53.212;5.660;2022-07-11T03:58:50;15.30;99.90
52495;DHT22;38405;53.212;5.660;2022-07-11T04:01:17;15.30;99.90
52495;DHT22;38405;53.212;5.660;2022-07-11T04:03:42;15.30;99.90
52495;DHT22;38405;53.212;5.660;2022-07-11T04:06:08;15.30;99.90
52495;DHT22;38405;53.212;5.660;2022-07-11T04:08:33;15.30;99.90
52495;DHT22;38405;53.212;5.660;2022-07-11T04:10:59;15.40;99.90
52495;DHT22;38405;53.212;5.660;2022-07-11T04:13:25;15.30;99.90
52495;DHT22;38405;53.212;5.660;2022-07-11T04:15:51;15.40;99.90
52495;DHT22;38405;53.212;5.660;2022-07-11T04:18:16;15.40;99.90
52495;DHT22;38405;53.212;5.660;2022-07-11T04:20:42;15.40;99.90
52495;DHT22;38405;53.212;5.660;2022-07-11T04:23:08;15.40;99.90
52495;DHT22;38405;53.212;5.660;2022-07-11T04:25:34;15.40;99.90
52495;DHT22;38405;53.212;5.660;2022-07-11T04:28:00;15.40;99.90
52495;DHT22;38405;53.212;5.660;2022-07-11T04:30:26;15.50;99.90
52495;DHT22;38405;53.212;5.660;2022-07-11T04:32:51;15.70;99.90
52495;DHT22;38405;53.212;5.660;2022-07-11T04:35:17;15.50;99.90
52495;DHT22;38405;53.212;5.660;2022-07-11T04:37:43;15.50;99.90
52495;DHT22;38405;53.212;5.660;2022-07-11T04:40:10;15.60;99.90
52495;DHT22;38405;53.212;5.660;2022-07-11T04:42:35;15.60;99.90
52495;DHT22;38405;53.212;5.660;2022-07-11T04:45:01;15.80;99.90
52495;DHT22;38405;53.212;5.660;2022-07-11T04:47:27;16.00;99.90
52495;DHT22;38405;53.212;5.660;2022-07-11T04:49:52;16.00;99.90
52495;DHT22;38405;53.212;5.660;2022-07-11T04:52:18;15.90;99.90
52495;DHT22;38405;53.212;5.660;2022-07-11T04:54:44;15.80;99.90
52495;DHT22;38405;53.212;5.660;2022-07-11T04:57:09;15.80;99.90
52495;DHT22;38405;53.212;5.660;2022-07-11T04:59:35;15.70;99.90
52495;DHT22;38405;53.212;5.660;2022-07-11T05:02:01;15.70;99.90
52495;DHT22;38405;53.212;5.660;2022-07-11T05:04:27;15.60;99.90
52495;DHT22;38405;53.212;5.660;2022-07-11T05:06:52;15.60;99.90
52495;DHT22;38405;53.212;5.660;2022-07-11T05:09:18;15.60;99.90
52495;DHT22;38405;53.212;5.660;2022-07-11T05:11:44;15.60;99.90
52495;DHT22;38405;53.212;5.660;2022-07-11T05:14:10;15.60;99.90
52495;DHT22;38405;53.212;5.660;2022-07-11T05:16:35;15.70;99.90
52495;DHT22;38405;53.212;5.660;2022-07-11T05:19:01;15.70;99.90
52495;DHT22;38405;53.212;5.660;2022-07-11T05:21:27;15.90;99.90
52495;DHT22;38405;53.212;5.660;2022-07-11T05:23:52;15.90;99.90
52495;DHT22;38405;53.212;5.660;2022-07-11T05:26:18;15.90;99.90
52495;DHT22;38405;53.212;5.660;2022-07-11T05:28:44;16.10;99.90
52495;DHT22;38405;53.212;5.660;2022-07-11T05:31:09;16.20;99.90
52495;DHT22;38405;53.212;5.660;2022-07-11T05:33:36;16.40;99.90
52495;DHT22;38405;53.212;5.660;2022-07-11T05:36:02;16.40;99.90
52495;DHT22;38405;53.212;5.660;2022-07-11T05:38:28;16.20;99.90
52495;DHT22;38405;53.212;5.660;2022-07-11T05:40:54;16.20;99.90
52495;DHT22;38405;53.212;5.660;2022-07-11T05:43:20;16.10;99.90
52495;DHT22;38405;53.212;5.660;2022-07-11T05:45:45;16.10;99.90
52495;DHT22;38405;53.212;5.660;2022-07-11T05:48:11;16.10;99.90
52495;DHT22;38405;53.212;5.660;2022-07-11T05:50:37;16.20;99.90
52495;DHT22;38405;53.212;5.660;2022-07-11T05:53:03;16.20;99.90
52495;DHT22;38405;53.212;5.660;2022-07-11T05:55:29;16.20;99.90
52495;DHT22;38405;53.212;5.660;2022-07-11T05:57:55;16.20;99.90
52495;DHT22;38405;53.212;5.660;2022-07-11T06:00:21;16.10;99.90
52495;DHT22;38405;53.212;5.660;2022-07-11T06:02:51;16.10;99.90
52495;DHT22;38405;53.212;5.660;2022-07-11T06:05:16;16.30;99.90
52495;DHT22;38405;53.212;5.660;2022-07-11T06:07:42;16.30;99.90
52495;DHT22;38405;53.212;5.660;2022-07-11T06:10:26;16.30;99.90
52495;DHT22;38405;53.212;5.660;2022-07-11T06:12:53;16.50;99.90
52495;DHT22;38405;53.212;5.660;2022-07-11T06:15:20;16.60;99.90
52495;DHT22;38405;53.212;5.660;2022-07-11T06:17:45;16.70;99.90
52495;DHT22;38405;53.212;5.660;2022-07-11T06:20:11;16.80;99.90
52495;DHT22;38405;53.212;5.660;2022-07-11T06:22:37;16.90;99.90
52495;DHT22;38405;53.212;5.660;2022-07-11T06:25:03;16.90;99.90
52495;DHT22;38405;53.212;5.660;2022-07-11T06:27:29;16.80;99.90
52495;DHT22;38405;53.212;5.660;2022-07-11T06:29:54;16.80;99.90
52495;DHT22;38405;53.212;5.660;2022-07-11T06:32:20;16.90;99.90
52495;DHT22;38405;53.212;5.660;2022-07-11T06:34:45;17.10;99.90
52495;DHT22;38405;53.212;5.660;2022-07-11T06:37:11;17.40;99.90
52495;DHT22;38405;53.212;5.660;2022-07-11T06:39:37;17.80;99.90
52495;DHT22;38405;53.212;5.660;2022-07-11T06:42:03;18.30;99.90
52495;DHT22;38405;53.212;5.660;2022-07-11T06:44:28;18.20;99.90
52495;DHT22;38405;53.212;5.660;2022-07-11T06:46:54;18.00;99.90
52495;DHT22;38405;53.212;5.660;2022-07-11T06:49:19;17.90;99.90
52495;DHT22;38405;53.212;5.660;2022-07-11T06:51:45;17.90;99.90
52495;DHT22;38405;53.212;5.660;2022-07-11T06:54:11;18.20;99.90
52495;DHT22;38405;53.212;5.660;2022-07-11T06:56:36;19.10;99.90
52495;DHT22;38405;53.212;5.660;2022-07-11T06:59:02;19.50;99.90
52495;DHT22;38405;53.212;5.660;2022-07-11T07:01:27;19.50;99.90
52495;DHT22;38405;53.212;5.660;2022-07-11T07:03:53;19.50;99.90
52495;DHT22;38405;53.212;5.660;2022-07-11T07:06:19;19.20;99.90
52495;DHT22;38405;53.212;5.660;2022-07-11T07:08:45;18.80;99.90
52495;DHT22;38405;53.212;5.660;2022-07-11T07:11:11;18.50;99.90
52495;DHT22;38405;53.212;5.660;2022-07-11T07:13:37;18.30;99.90
52495;DHT22;38405;53.212;5.660;2022-07-11T07:16:03;18.00;99.90
52495;DHT22;38405;53.212;5.660;2022-07-11T07:18:30;17.90;99.90
52495;DHT22;38405;53.212;5.660;2022-07-11T07:20:55;17.80;99.90
52495;DHT22;38405;53.212;5.660;2022-07-11T07:23:21;17.90;99.90
52495;DHT22;38405;53.212;5.660;2022-07-11T07:25:47;18.00;99.90
52495;DHT22;38405;53.212;5.660;2022-07-11T07:28:12;18.00;99.90
52495;DHT22;38405;53.212;5.660;2022-07-11T07:30:38;18.20;99.90
52495;DHT22;38405;53.212;5.660;2022-07-11T07:33:04;19.00;99.90
52495;DHT22;38405;53.212;5.660;2022-07-11T07:35:29;19.90;99.90
52495;DHT22;38405;53.212;5.660;2022-07-11T07:37:58;20.10;99.90
52495;DHT22;38405;53.212;5.660;2022-07-11T07:40:26;19.80;99.90
52495;DHT22;38405;53.212;5.660;2022-07-11T07:42:51;20.20;99.90
52495;DHT22;38405;53.212;5.660;2022-07-11T07:45:17;21.50;99.90
52495;DHT22;38405;53.212;5.660;2022-07-11T07:47:43;22.60;99.90
52495;DHT22;38405;53.212;5.660;2022-07-11T07:50:09;23.10;99.90
52495;DHT22;38405;53.212;5.660;2022-07-11T07:52:34;22.40;99.90
52495;DHT22;38405;53.212;5.660;2022-07-11T07:55:00;21.70;99.90
52495;DHT22;38405;53.212;5.660;2022-07-11T07:57:26;21.40;99.90
52495;DHT22;38405;53.212;5.660;2022-07-11T07:59:52;21.50;99.90
52495;DHT22;38405;53.212;5.660;2022-07-11T08:02:37;21.80;99.90
52495;DHT22;38405;53.212;5.660;2022-07-11T08:05:03;22.20;99.90
52495;DHT22;38405;53.212;5.660;2022-07-11T08:07:29;22.00;99.90
52495;DHT22;38405;53.212;5.660;2022-07-11T08:09:54;22.10;99.90
52495;DHT22;38405;53.212;5.660;2022-07-11T08:12:20;21.60;99.90
52495;DHT22;38405;53.212;5.660;2022-07-11T08:14:46;20.90;99.90
52495;DHT22;38405;53.212;5.660;2022-07-11T08:17:11;20.40;99.90
52495;DHT22;38405;53.212;5.660;2022-07-11T08:19:37;20.10;99.90
52495;DHT22;38405;53.212;5.660;2022-07-11T08:22:03;19.70;99.90
52495;DHT22;38405;53.212;5.660;2022-07-11T08:24:32;19.40;99.90
52495;DHT22;38405;53.212;5.660;2022-07-11T08:26:58;19.30;99.90
52495;DHT22;38405;53.212;5.660;2022-07-11T08:29:24;19.30;99.90
52495;DHT22;38405;53.212;5.660;2022-07-11T08:31:51;19.30;99.90
52495;DHT22;38405;53.212;5.660;2022-07-11T08:34:17;19.30;99.90
52495;DHT22;38405;53.212;5.660;2022-07-11T08:36:43;19.40;99.90
52495;DHT22;38405;53.212;5.660;2022-07-11T08:39:08;19.50;99.90
52495;DHT22;38405;53.212;5.660;2022-07-11T08:41:42;19.50;99.90
52495;DHT22;38405;53.212;5.660;2022-07-11T08:44:08;19.60;99.90
52495;DHT22;38405;53.212;5.660;2022-07-11T08:46:33;19.30;99.90
52495;DHT22;38405;53.212;5.660;2022-07-11T08:48:59;19.20;99.90
52495;DHT22;38405;53.212;5.660;2022-07-11T08:51:27;19.10;99.90
52495;DHT22;38405;53.212;5.660;2022-07-11T08:53:53;19.00;99.90
52495;DHT22;38405;53.212;5.660;2022-07-11T08:56:19;19.40;99.90
52495;DHT22;38405;53.212;5.660;2022-07-11T08:58:48;19.90;99.90
52495;DHT22;38405;53.212;5.660;2022-07-11T09:01:16;20.60;99.90
52495;DHT22;38405;53.212;5.660;2022-07-11T09:03:43;21.00;99.90
52495;DHT22;38405;53.212;5.660;2022-07-11T09:06:08;21.00;99.90
52495;DHT22;38405;53.212;5.660;2022-07-11T09:08:36;21.70;99.90
52495;DHT22;38405;53.212;5.660;2022-07-11T09:11:04;22.70;99.90
52495;DHT22;38405;53.212;5.660;2022-07-11T09:13:30;22.40;99.90
52495;DHT22;38405;53.212;5.660;2022-07-11T09:16:02;21.80;99.90
52495;DHT22;38405;53.212;5.660;2022-07-11T09:18:30;21.30;99.90
52495;DHT22;38405;53.212;5.660;2022-07-11T09:21:00;20.90;99.90
52495;DHT22;38405;53.212;5.660;2022-07-11T09:23:45;20.60;99.90
52495;DHT22;38405;53.212;5.660;2022-07-11T09:26:31;20.40;99.90
52495;DHT22;38405;53.212;5.660;2022-07-11T09:29:11;20.30;99.90
52495;DHT22;38405;53.212;5.660;2022-07-11T09:31:39;20.50;99.90
52495;DHT22;38405;53.212;5.660;2022-07-11T09:34:08;20.60;99.90
52495;DHT22;38405;53.212;5.660;2022-07-11T09:36:35;20.50;99.90
52495;DHT22;38405;53.212;5.660;2022-07-11T09:39:03;20.40;99.90
52495;DHT22;38405;53.212;5.660;2022-07-11T09:41:34;20.60;99.90
52495;DHT22;38405;53.212;5.660;2022-07-11T09:44:14;20.60;99.90
52495;DHT22;38405;53.212;5.660;2022-07-11T09:46:43;20.60;99.90
52495;DHT22;38405;53.212;5.660;2022-07-11T09:49:09;20.40;99.90
52495;DHT22;38405;53.212;5.660;2022-07-11T09:51:36;20.30;99.90
52495;DHT22;38405;53.212;5.660;2022-07-11T09:54:03;20.40;99.90
52495;DHT22;38405;53.212;5.660;2022-07-11T09:56:34;20.40;99.90
52495;DHT22;38405;53.212;5.660;2022-07-11T09:59:04;20.50;99.90
52495;DHT22;38405;53.212;5.660;2022-07-11T10:01:30;20.50;99.90
52495;DHT22;38405;53.212;5.660;2022-07-11T10:03:57;20.70;99.90
52495;DHT22;38405;53.212;5.660;2022-07-11T10:06:23;21.00;99.90
52495;DHT22;38405;53.212;5.660;2022-07-11T10:08:51;21.10;99.90
52495;DHT22;38405;53.212;5.660;2022-07-11T10:11:17;20.90;99.90
52495;DHT22;38405;53.212;5.660;2022-07-11T10:13:43;20.70;99.90
52495;DHT22;38405;53.212;5.660;2022-07-11T10:18:56;20.20;99.90
52495;DHT22;38405;53.212;5.660;2022-07-11T10:21:36;20.10;99.90
52495;DHT22;38405;53.212;5.660;2022-07-11T10:24:56;20.20;99.90
52495;DHT22;38405;53.212;5.660;2022-07-11T10:27:12;20.10;99.90
52495;DHT22;38405;53.212;5.660;2022-07-11T10:29:49;20.30;99.90
52495;DHT22;38405;53.212;5.660;2022-07-11T10:32:15;20.70;99.90
52495;DHT22;38405;53.212;5.660;2022-07-11T10:34:42;21.50;99.90
52495;DHT22;38405;53.212;5.660;2022-07-11T10:37:09;22.30;99.90
52495;DHT22;38405;53.212;5.660;2022-07-11T10:39:37;22.60;99.90
52495;DHT22;38405;53.212;5.660;2022-07-11T10:42:04;22.70;99.90
52495;DHT22;38405;53.212;5.660;2022-07-11T10:44:49;22.40;99.90
52495;DHT22;38405;53.212;5.660;2022-07-11T10:47:34;22.00;99.90
52495;DHT22;38405;53.212;5.660;2022-07-11T10:52:54;21.60;99.90
52495;DHT22;38405;53.212;5.660;2022-07-11T10:55:36;21.40;99.90
52495;DHT22;38405;53.212;5.660;2022-07-11T10:58:19;21.50;99.90
52495;DHT22;38405;53.212;5.660;2022-07-11T11:00:49;21.50;99.90
52495;DHT22;38405;53.212;5.660;2022-07-11T11:03:32;21.50;99.90
52495;DHT22;38405;53.212;5.660;2022-07-11T11:05:57;21.50;99.90
52495;DHT22;38405;53.212;5.660;2022-07-11T11:14:17;21.50;99.90
52495;DHT22;38405;53.212;5.660;2022-07-11T11:16:44;21.50;99.90
52495;DHT22;38405;53.212;5.660;2022-07-11T11:22:15;21.40;99.90
52495;DHT22;38405;53.212;5.660;2022-07-11T11:24:43;21.30;99.90
52495;DHT22;38405;53.212;5.660;2022-07-11T11:27:19;21.30;99.90
52495;DHT22;38405;53.212;5.660;2022-07-11T11:29:48;21.10;99.90
52495;DHT22;38405;53.212;5.660;2022-07-11T11:32:14;21.20;99.90
52495;DHT22;38405;53.212;5.660;2022-07-11T11:34:40;21.30;99.90
52495;DHT22;38405;53.212;5.660;2022-07-11T11:37:09;21.40;99.90
52495;DHT22;38405;53.212;5.660;2022-07-11T11:39:37;21.50;99.90
52495;DHT22;38405;53.212;5.660;2022-07-11T11:42:16;21.50;99.90
52495;DHT22;38405;53.212;5.660;2022-07-11T11:44:52;21.40;99.90
52495;DHT22;38405;53.212;5.660;2022-07-11T11:47:22;21.70;99.90
52495;DHT22;38405;53.212;5.660;2022-07-11T11:49:49;21.90;99.90
52495;DHT22;38405;53.212;5.660;2022-07-11T11:52:16;22.00;99.90
52495;DHT22;38405;53.212;5.660;2022-07-11T11:54:42;22.20;99.90
52495;DHT22;38405;53.212;5.660;2022-07-11T11:57:09;22.30;99.90
52495;DHT22;38405;53.212;5.660;2022-07-11T11:59:40;22.20;99.90
52495;DHT22;38405;53.212;5.660;2022-07-11T12:02:07;22.20;99.90
52495;DHT22;38405;53.212;5.660;2022-07-11T12:04:34;22.30;99.90
52495;DHT22;38405;53.212;5.660;2022-07-11T12:07:02;22.20;99.90
52495;DHT22;38405;53.212;5.660;2022-07-11T12:09:38;22.10;99.90
52495;DHT22;38405;53.212;5.660;2022-07-11T12:12:20;22.00;99.90
52495;DHT22;38405;53.212;5.660;2022-07-11T12:15:26;21.80;99.90
52495;DHT22;38405;53.212;5.660;2022-07-11T12:17:57;21.70;99.90
52495;DHT22;38405;53.212;5.660;2022-07-11T12:20:35;21.70;99.90
52495;DHT22;38405;53.212;5.660;2022-07-11T12:23:04;21.50;99.90
52495;DHT22;38405;53.212;5.660;2022-07-11T12:25:30;21.60;99.90
52495;DHT22;38405;53.212;5.660;2022-07-11T12:27:56;21.80;99.90
52495;DHT22;38405;53.212;5.660;2022-07-11T12:30:23;21.90;99.90
52495;DHT22;38405;53.212;5.660;2022-07-11T12:33:12;22.00;99.90
52495;DHT22;38405;53.212;5.660;2022-07-11T12:36:01;22.10;99.90
52495;DHT22;38405;53.212;5.660;2022-07-11T12:38:47;22.20;99.90
52495;DHT22;38405;53.212;5.660;2022-07-11T12:41:13;22.40;99.90
52495;DHT22;38405;53.212;5.660;2022-07-11T12:43:47;22.30;99.90
52495;DHT22;38405;53.212;5.660;2022-07-11T12:46:32;22.40;99.90
52495;DHT22;38405;53.212;5.660;2022-07-11T12:49:10;22.30;99.90
52495;DHT22;38405;53.212;5.660;2022-07-11T12:51:38;22.20;99.90
52495;DHT22;38405;53.212;5.660;2022-07-11T12:56:34;22.40;99.90
52495;DHT22;38405;53.212;5.660;2022-07-11T12:59:02;22.10;99.90
52495;DHT22;38405;53.212;5.660;2022-07-11T13:01:29;22.50;99.90
52495;DHT22;38405;53.212;5.660;2022-07-11T13:03:59;22.50;99.90
52495;DHT22;38405;53.212;5.660;2022-07-11T13:06:25;22.30;99.90
52495;DHT22;38405;53.212;5.660;2022-07-11T13:09:09;22.00;99.90
52495;DHT22;38405;53.212;5.660;2022-07-11T13:11:38;21.90;99.90
52495;DHT22;38405;53.212;5.660;2022-07-11T13:14:05;21.90;99.90
52495;DHT22;38405;53.212;5.660;2022-07-11T13:16:51;22.10;99.90
52495;DHT22;38405;53.212;5.660;2022-07-11T13:19:19;22.10;99.90
52495;DHT22;38405;53.212;5.660;2022-07-11T13:21:45;22.20;99.90
52495;DHT22;38405;53.212;5.660;2022-07-11T13:24:11;22.30;99.90
52495;DHT22;38405;53.212;5.660;2022-07-11T13:26:36;22.30;99.90
52495;DHT22;38405;53.212;5.660;2022-07-11T13:29:02;22.20;99.90
52495;DHT22;38405;53.212;5.660;2022-07-11T13:31:27;22.00;99.90
52495;DHT22;38405;53.212;5.660;2022-07-11T13:33:54;21.70;99.90
52495;DHT22;38405;53.212;5.660;2022-07-11T13:36:21;21.60;99.90
52495;DHT22;38405;53.212;5.660;2022-07-11T13:38:50;21.50;99.90
52495;DHT22;38405;53.212;5.660;2022-07-11T13:41:16;21.70;99.90
52495;DHT22;38405;53.212;5.660;2022-07-11T13:43:42;21.80;99.90
52495;DHT22;38405;53.212;5.660;2022-07-11T13:46:11;21.80;99.90
52495;DHT22;38405;53.212;5.660;2022-07-11T13:48:37;21.80;99.90
52495;DHT22;38405;53.212;5.660;2022-07-11T13:51:07;21.60;99.90
52495;DHT22;38405;53.212;5.660;2022-07-11T13:53:33;21.50;99.90
52495;DHT22;38405;53.212;5.660;2022-07-11T13:55:59;21.50;99.90
52495;DHT22;38405;53.212;5.660;2022-07-11T13:58:24;21.40;99.90
52495;DHT22;38405;53.212;5.660;2022-07-11T14:00:51;21.40;99.90
52495;DHT22;38405;53.212;5.660;2022-07-11T14:03:17;21.40;99.90
52495;DHT22;38405;53.212;5.660;2022-07-11T14:05:43;21.30;99.90
52495;DHT22;38405;53.212;5.660;2022-07-11T14:08:08;21.30;99.90
52495;DHT22;38405;53.212;5.660;2022-07-11T14:10:34;21.20;99.90
52495;DHT22;38405;53.212;5.660;2022-07-11T14:13:00;21.00;99.90
52495;DHT22;38405;53.212;5.660;2022-07-11T14:15:25;21.00;99.90
52495;DHT22;38405;53.212;5.660;2022-07-11T14:17:51;21.10;99.90
52495;DHT22;38405;53.212;5.660;2022-07-11T14:20:17;21.20;99.90
52495;DHT22;38405;53.212;5.660;2022-07-11T14:22:42;21.40;99.90
52495;DHT22;38405;53.212;5.660;2022-07-11T14:25:08;21.50;99.90
52495;DHT22;38405;53.212;5.660;2022-07-11T14:27:38;21.40;99.90
52495;DHT22;38405;53.212;5.660;2022-07-11T14:30:05;21.20;99.90
52495;DHT22;38405;53.212;5.660;2022-07-11T14:32:31;21.00;99.90
52495;DHT22;38405;53.212;5.660;2022-07-11T14:34:57;20.70;99.90
52495;DHT22;38405;53.212;5.660;2022-07-11T14:37:23;20.60;99.90
52495;DHT22;38405;53.212;5.660;2022-07-11T14:39:49;20.50;99.90
52495;DHT22;38405;53.212;5.660;2022-07-11T14:42:14;20.50;99.90
52495;DHT22;38405;53.212;5.660;2022-07-11T14:44:40;20.50;99.90
52495;DHT22;38405;53.212;5.660;2022-07-11T14:47:06;20.70;99.90
52495;DHT22;38405;53.212;5.660;2022-07-11T14:49:31;20.80;99.90
52495;DHT22;38405;53.212;5.660;2022-07-11T14:51:57;21.00;99.90
52495;DHT22;38405;53.212;5.660;2022-07-11T14:54:23;21.20;99.90
52495;DHT22;38405;53.212;5.660;2022-07-11T14:56:49;21.20;99.90
52495;DHT22;38405;53.212;5.660;2022-07-11T14:59:16;21.30;99.90
52495;DHT22;38405;53.212;5.660;2022-07-11T15:01:42;21.30;99.90
52495;DHT22;38405;53.212;5.660;2022-07-11T15:04:07;21.40;99.90
52495;DHT22;38405;53.212;5.660;2022-07-11T15:06:33;21.40;99.90
52495;DHT22;38405;53.212;5.660;2022-07-11T15:09:17;21.40;99.90
52495;DHT22;38405;53.212;5.660;2022-07-11T15:12:01;21.40;99.90
52495;DHT22;38405;53.212;5.660;2022-07-11T15:14:46;21.20;99.90
52495;DHT22;38405;53.212;5.660;2022-07-11T15:17:15;21.00;99.90
52495;DHT22;38405;53.212;5.660;2022-07-11T15:19:40;20.80;99.90
52495;DHT22;38405;53.212;5.660;2022-07-11T15:22:06;20.80;99.90
52495;DHT22;38405;53.212;5.660;2022-07-11T15:24:32;20.80;99.90
52495;DHT22;38405;53.212;5.660;2022-07-11T15:26:58;20.80;99.90
52495;DHT22;38405;53.212;5.660;2022-07-11T15:29:27;21.00;99.90
52495;DHT22;38405;53.212;5.660;2022-07-11T15:31:53;21.00;99.90
52495;DHT22;38405;53.212;5.660;2022-07-11T15:34:21;21.20;99.90
52495;DHT22;38405;53.212;5.660;2022-07-11T15:36:48;21.30;99.90
52495;DHT22;38405;53.212;5.660;2022-07-11T15:39:14;21.40;99.90
52495;DHT22;38405;53.212;5.660;2022-07-11T15:41:39;21.60;99.90
52495;DHT22;38405;53.212;5.660;2022-07-11T15:44:06;21.80;99.90
52495;DHT22;38405;53.212;5.660;2022-07-11T15:46:31;22.10;99.90
52495;DHT22;38405;53.212;5.660;2022-07-11T15:48:59;22.30;99.90
52495;DHT22;38405;53.212;5.660;2022-07-11T15:51:25;22.50;99.90